Time;durP1;ratioP1;P1;durP2;ratioP2;P2;SDS_P1;SDS_P2;PMS_P1;PMS_P2;Temp;Humidity;BMP_temperature;BMP_pressure;BME280_temperature;BME280_humidity;BME280_pressure;Samples;Min_cycle;Max_cycle;Signal;HPM_P1;HPM_P2
2022/04/21 00:00:28;;;;;;;2.05;1.52;;;17.10;55.00;;;;;;5014946;28;20058;-69
2022/04/21 00:02:54;;;;;;;2.67;1.58;;;16.60;55.20;;;;;;5032354;28;20051;-69
2022/04/21 00:05:21;;;;;;;2.53;1.70;;;16.90;55.30;;;;;;5032697;28;20425;-70
2022/04/21 00:07:48;;;;;;;2.25;1.50;;;16.30;55.00;;;;;;5014787;28;20049;-70
2022/04/21 00:10:15;;;;;;;2.63;1.70;;;16.70;55.10;;;;;;5015001;28;20060;-69
2022/04/21 00:12:41;;;;;;;2.25;1.52;;;16.20;50.10;;;;;;5032549;28;20056;-69
2022/04/21 00:15:11;;;;;;;2.58;1.70;;;16.90;55.30;;;;;;5014222;28;20049;-69
2022/04/21 00:17:38;;;;;;;1.77;1.52;;;16.60;55.30;;;;;;5032415;28;20537;-70
2022/04/21 00:20:05;;;;;;;2.70;1.70;;;16.00;54.50;;;;;;5014439;28;20063;-69
2022/04/21 00:25:16;;;;;;;2.17;1.40;;;16.60;53.60;;;;;;5032232;28;20049;-70
2022/04/21 00:27:43;;;;;;;2.05;1.70;;;16.00;54.70;;;;;;5014902;28;20060;-69
2022/04/21 00:30:13;;;;;;;2.60;1.55;;;16.80;55.50;;;;;;5031700;28;20049;-70
2022/04/21 00:32:40;;;;;;;2.00;1.77;;;16.70;55.40;;;;;;5014820;28;20391;-69
2022/04/21 00:35:07;;;;;;;1.95;1.30;;;16.50;55.20;;;;;;5014669;28;20049;-69
2022/04/21 00:37:38;;;;;;;2.72;1.60;;;16.10;55.10;;;;;;5014395;28;20053;-70
2022/04/21 00:40:05;;;;;;;2.40;1.67;;;16.60;50.90;;;;;;5031182;28;20057;-69
2022/04/21 00:42:32;;;;;;;1.65;1.33;;;17.20;55.80;;;;;;5014448;28;20057;-69
2022/04/21 00:44:58;;;;;;;2.25;1.65;;;16.00;54.80;;;;;;5013677;28;20060;-69
2022/04/21 00:47:26;;;;;;;2.70;1.85;;;16.20;55.20;;;;;;5014268;28;20479;-69
2022/04/21 00:49:53;;;;;;;2.60;1.75;;;15.90;54.70;;;;;;5031940;28;20056;-70
2022/04/21 00:52:21;;;;;;;3.10;1.60;;;16.60;55.50;;;;;;5031818;28;20056;-69
2022/04/21 00:54:48;;;;;;;2.25;1.55;;;16.00;54.90;;;;;;5014396;28;20053;-70
2022/04/21 00:57:14;;;;;;;1.85;1.50;;;16.70;55.50;;;;;;5032224;28;20409;-70
2022/04/21 00:59:41;;;;;;;3.63;1.65;;;16.30;55.00;;;;;;5013890;28;20056;-69
2022/04/21 01:04:53;;;;;;;2.13;1.63;;;17.30;55.90;;;;;;5031445;28;20050;-69
2022/04/21 01:07:20;;;;;;;2.25;1.70;;;16.60;55.60;;;;;;5014073;28;20060;-69
2022/04/21 01:09:47;;;;;;;2.60;1.90;;;16.50;55.30;;;;;;5031490;28;20080;-71
2022/04/21 01:12:14;;;;;;;1.85;1.65;;;16.50;55.20;;;;;;5014421;28;20072;-69
2022/04/21 01:14:40;;;;;;;3.03;1.90;;;16.50;55.50;;;;;;5031581;28;20045;-69
2022/04/21 01:17:07;;;;;;;3.15;1.80;;;16.60;55.30;;;;;;5031800;28;20048;-70
2022/04/21 01:19:34;;;;;;;2.15;1.70;;;16.40;55.20;;;;;;5031327;28;20049;-70
2022/04/21 01:22:02;;;;;;;2.10;1.58;;;16.40;49.30;;;;;;5031300;28;20049;-69
2022/04/21 01:24:29;;;;;;;2.20;1.65;;;16.30;55.40;;;;;;5031483;28;20100;-71
2022/04/21 01:26:56;;;;;;;3.33;1.70;;;16.40;55.20;;;;;;5031595;28;20163;-70
2022/04/21 01:29:22;;;;;;;1.80;1.60;;;16.50;55.30;;;;;;5031689;28;20056;-71
2022/04/21 01:31:49;;;;;;;2.28;1.70;;;16.30;55.40;;;;;;5013783;28;20064;-70
2022/04/21 01:34:16;;;;;;;2.00;1.70;;;16.30;55.40;;;;;;5031444;28;20049;-69
2022/04/21 01:42:14;;;;;;;2.00;1.73;;;16.40;49.40;;;;;;4997420;28;20081;-70
2022/04/21 01:44:41;;;;;;;2.42;1.90;;;17.00;55.70;;;;;;5031361;28;20049;-69
2022/04/21 01:47:07;;;;;;;2.50;1.80;;;16.40;55.30;;;;;;5014126;28;20060;-69
2022/04/21 01:49:34;;;;;;;3.55;1.80;;;16.30;55.50;;;;;;5013649;28;20490;-70
2022/04/21 01:52:01;;;;;;;2.55;1.95;;;16.40;55.60;;;;;;5013493;28;20053;-69
2022/04/21 01:54:29;;;;;;;2.90;1.95;;;16.30;55.70;;;;;;5013721;28;20486;-70
2022/04/21 01:56:55;;;;;;;2.83;1.73;;;16.00;55.10;;;;;;5017086;28;20067;-69
2022/04/21 01:59:22;;;;;;;2.10;1.70;;;16.30;55.30;;;;;;5034866;28;20041;-70
2022/04/21 02:01:50;;;;;;;4.43;2.10;;;16.30;55.30;;;;;;5034934;28;20049;-69
2022/04/21 02:04:17;;;;;;;2.30;1.80;;;16.90;53.30;;;;;;5017357;28;20077;-70
2022/04/21 02:06:43;;;;;;;2.60;1.85;;;16.10;55.50;;;;;;5034855;28;20051;-69
2022/04/21 02:09:10;;;;;;;2.38;1.80;;;16.50;55.70;;;;;;5034895;28;20046;-69
2022/04/21 02:11:38;;;;;;;2.35;1.70;;;16.20;55.20;;;;;;5016865;28;20054;-69
2022/04/21 02:14:05;;;;;;;2.60;1.90;;;16.30;51.00;;;;;;5017313;28;20079;-69
2022/04/21 02:16:31;;;;;;;3.67;1.95;;;16.20;55.50;;;;;;5016741;28;20053;-69
2022/04/21 02:18:58;;;;;;;2.60;2.03;;;16.20;55.30;;;;;;5017263;28;20049;-70
2022/04/21 02:21:25;;;;;;;2.88;1.90;;;;;;;;;;5034355;28;20065;-70
2022/04/21 02:23:52;;;;;;;2.50;1.88;;;16.40;55.70;;;;;;5000961;28;20053;-70
2022/04/21 02:26:19;;;;;;;2.22;1.90;;;16.20;55.20;;;;;;5016737;28;20057;-70
2022/04/21 02:28:47;;;;;;;2.80;1.98;;;16.20;55.30;;;;;;5034403;28;20056;-70
2022/04/21 02:31:14;;;;;;;2.40;1.90;;;16.20;55.70;;;;;;5016861;28;20061;-70
2022/04/21 02:33:40;;;;;;;2.33;1.80;;;16.20;55.40;;;;;;5016587;28;20103;-69
2022/04/21 02:36:07;;;;;;;2.35;1.98;;;16.30;55.70;;;;;;5034589;28;20049;-71
2022/04/21 02:38:34;;;;;;;3.10;1.90;;;16.40;55.40;;;;;;5034108;28;20049;-70
2022/04/21 02:41:01;;;;;;;2.10;1.90;;;16.40;55.80;;;;;;5016562;28;20052;-69
2022/04/21 02:43:28;;;;;;;2.58;1.90;;;16.10;55.50;;;;;;5034367;28;20057;-70
2022/04/21 02:45:56;;;;;;;2.55;1.80;;;16.30;55.60;;;;;;5034137;28;20057;-69
2022/04/21 02:48:23;;;;;;;2.55;1.85;;;16.20;55.70;;;;;;5016562;28;20432;-69
2022/04/21 02:50:50;;;;;;;2.50;2.00;;;16.20;55.40;;;;;;5016093;28;20064;-69
2022/04/21 02:53:18;;;;;;;3.65;1.88;;;16.10;55.70;;;;;;5034053;28;20132;-69
2022/04/21 02:58:28;;;;;;;2.10;1.90;;;15.60;55.30;;;;;;5034024;28;20041;-70
2022/04/21 03:00:57;;;;;;;2.13;1.92;;;15.70;55.40;;;;;;5016002;28;20057;-69
2022/04/21 03:03:23;;;;;;;2.30;1.85;;;16.30;55.50;;;;;;5016452;28;20055;-69
2022/04/21 03:05:50;;;;;;;2.60;1.88;;;15.70;51.80;;;;;;5016076;28;20053;-70
2022/04/21 03:08:17;;;;;;;2.90;2.10;;;16.10;55.50;;;;;;5015441;28;20096;-70
2022/04/21 03:10:43;;;;;;;2.35;1.90;;;16.10;55.50;;;;;;5033631;28;20055;-69
2022/04/21 03:13:10;;;;;;;2.20;1.70;;;16.00;55.70;;;;;;5016072;28;20059;-70
2022/04/21 03:15:37;;;;;;;3.05;2.00;;;15.70;55.30;;;;;;5033329;28;20509;-70
2022/04/21 03:18:05;;;;;;;2.53;1.88;;;16.00;55.90;;;;;;5016097;28;20064;-69
2022/04/21 03:26:00;;;;;;;2.63;1.77;;;16.00;55.50;;;;;;5015894;28;20045;-71
2022/04/21 03:28:27;;;;;;;2.42;1.92;;;15.70;55.20;;;;;;5033363;28;20409;-70
2022/04/21 03:30:53;;;;;;;3.53;2.35;;;15.90;55.70;;;;;;5033217;28;20056;-70
2022/04/21 03:33:24;;;;;;;2.08;1.80;;;16.00;55.80;;;;;;5033566;28;20045;-70
2022/04/21 03:35:51;;;;;;;2.97;1.85;;;15.90;55.50;;;;;;5015542;28;20045;-70
2022/04/21 03:38:17;;;;;;;2.40;1.80;;;15.90;55.50;;;;;;5015805;28;20049;-70
2022/04/21 03:40:44;;;;;;;4.00;1.90;;;15.40;55.20;;;;;;5015228;28;20405;-69
2022/04/21 03:43:11;;;;;;;3.20;1.90;;;15.90;55.90;;;;;;5033359;28;20056;-70
2022/04/21 03:45:38;;;;;;;2.00;1.80;;;16.00;55.70;;;;;;5015295;28;20056;-69
2022/04/21 03:48:05;;;;;;;2.53;1.92;;;15.90;55.80;;;;;;5015360;28;20057;-70
2022/04/21 03:50:34;;;;;;;2.53;1.90;;;16.10;55.60;;;;;;5015233;28;20054;-70
2022/04/21 03:53:00;;;;;;;2.83;2.00;;;15.70;55.60;;;;;;5032880;28;20049;-69
2022/04/21 03:55:27;;;;;;;2.83;2.05;;;;;;;;;;5015183;28;20045;-71
2022/04/21 03:57:54;;;;;;;2.55;1.80;;;15.80;55.70;;;;;;5032680;28;20049;-69
2022/04/21 04:00:21;;;;;;;2.58;1.90;;;16.00;55.80;;;;;;5032665;28;20417;-69
2022/04/21 04:02:48;;;;;;;2.50;1.88;;;;;;;;;;5014761;28;20053;-70
2022/04/21 04:05:15;;;;;;;2.97;2.00;;;16.10;55.80;;;;;;5015184;28;20056;-69
2022/04/21 04:13:13;;;;;;;2.58;2.00;;;15.00;55.60;;;;;;5010960;28;20538;-69
2022/04/21 04:15:40;;;;;;;2.67;1.85;;;16.00;55.80;;;;;;5014928;28;20054;-70
2022/04/21 04:18:07;;;;;;;2.55;1.60;;;16.70;53.70;;;;;;5032393;28;20053;-69
2022/04/21 04:20:33;;;;;;;3.10;1.90;;;16.70;56.00;;;;;;5014632;28;20045;-69
2022/04/21 04:23:01;;;;;;;2.20;1.83;;;16.00;51.90;;;;;;5032426;28;20045;-69
2022/04/21 04:25:28;;;;;;;2.97;1.95;;;16.00;50.90;;;;;;5032153;28;20067;-70
2022/04/21 04:27:55;;;;;;;2.30;1.77;;;15.40;55.10;;;;;;5014671;28;20056;-69
2022/04/21 04:30:21;;;;;;;2.45;1.98;;;15.90;55.80;;;;;;5032057;28;20060;-70
2022/04/21 04:32:48;;;;;;;2.30;1.85;;;16.00;55.90;;;;;;5032339;28;20486;-70
2022/04/21 04:35:15;;;;;;;2.58;1.95;;;15.90;55.40;;;;;;5014218;28;20128;-70
2022/04/21 04:37:42;;;;;;;2.50;2.00;;;15.90;55.70;;;;;;5032033;28;20048;-70
2022/04/21 04:40:11;;;;;;;3.08;2.03;;;16.00;55.80;;;;;;5032271;28;20075;-70
2022/04/21 04:42:37;;;;;;;2.33;1.90;;;16.00;55.40;;;;;;5014602;28;20144;-69
2022/04/21 04:47:49;;;;;;;2.65;1.80;;;;;;;;;;5014214;28;20050;-70
2022/04/21 04:50:15;;;;;;;3.13;2.20;;;16.10;55.70;;;;;;5031945;28;20107;-69
2022/04/21 04:52:43;;;;;;;3.90;2.13;;;16.00;55.30;;;;;;5031886;28;20540;-69
2022/04/21 04:55:11;;;;;;;2.90;1.98;;;16.10;55.50;;;;;;5014037;28;20087;-69
2022/04/21 04:57:38;;;;;;;2.72;2.03;;;16.00;55.30;;;;;;5014402;28;20107;-69
2022/04/21 05:00:06;;;;;;;2.63;1.90;;;16.00;53.40;;;;;;5014190;28;20057;-70
2022/04/21 05:02:32;;;;;;;2.45;1.90;;;15.90;55.50;;;;;;5031797;28;20080;-69
2022/04/21 05:04:59;;;;;;;2.63;1.95;;;16.20;55.40;;;;;;5032047;28;20401;-70
2022/04/21 05:07:26;;;;;;;2.65;1.70;;;16.10;55.30;;;;;;5014453;28;20049;-69
2022/04/21 05:09:53;;;;;;;2.10;1.70;;;16.00;55.50;;;;;;5031464;28;20045;-69
2022/04/21 05:12:21;;;;;;;3.38;1.75;;;15.90;55.60;;;;;;5031845;28;20045;-69
2022/04/21 05:14:48;;;;;;;2.17;1.70;;;15.50;54.90;;;;;;5031462;28;20484;-70
2022/04/21 05:17:15;;;;;;;2.20;1.73;;;;;;;;;;5018849;28;20074;-71
2022/04/21 05:19:43;;;;;;;2.25;1.90;;;15.90;55.60;;;;;;5011974;28;20056;-69
2022/04/21 05:22:11;;;;;;;2.55;2.05;;;15.60;51.80;;;;;;5011008;28;20418;-70
2022/04/21 05:24:38;;;;;;;2.60;1.65;;;16.00;55.40;;;;;;5010587;28;20062;-69
2022/04/21 05:27:06;;;;;;;2.33;1.70;;;15.70;55.40;;;;;;5013805;28;20045;-69
2022/04/21 05:32:20;;;;;;;2.40;1.88;;;;;;;;;;5017575;28;20053;-70
2022/04/21 05:34:47;;;;;;;2.28;1.63;;;15.40;55.20;;;;;;5014577;28;20101;-69
2022/04/21 05:37:14;;;;;;;2.58;2.00;;;16.00;48.90;;;;;;5014253;28;20125;-71
2022/04/21 05:39:41;;;;;;;2.30;1.92;;;16.00;55.30;;;;;;5014563;28;20053;-69
2022/04/21 05:42:10;;;;;;;2.20;1.80;;;16.00;51.50;;;;;;5015397;28;20054;-69
2022/04/21 05:44:39;;;;;;;2.13;1.65;;;15.90;55.30;;;;;;5017505;28;20115;-69
2022/04/21 05:47:07;;;;;;;2.35;1.92;;;16.10;55.20;;;;;;5035502;28;20050;-70
2022/04/21 05:49:34;;;;;;;2.88;1.90;;;16.10;55.40;;;;;;5017733;28;20053;-69
2022/04/21 05:52:01;;;;;;;2.35;1.80;;;16.30;55.20;;;;;;5035317;28;20478;-70
2022/04/21 05:54:28;;;;;;;2.33;1.75;;;15.80;55.00;;;;;;5034919;28;20065;-69
2022/04/21 05:56:55;;;;;;;2.63;1.70;;;15.70;54.90;;;;;;5017467;28;20053;-69
2022/04/21 05:59:23;;;;;;;2.22;1.80;;;;;;;;;;5017186;28;20049;-70
2022/04/21 06:01:51;;;;;;;3.33;1.80;;;16.20;55.60;;;;;;5035208;28;20053;-69
2022/04/21 06:04:21;;;;;;;2.20;1.70;;;16.10;55.50;;;;;;5017051;28;20059;-69
2022/04/21 06:06:48;;;;;;;2.20;1.80;;;15.90;55.20;;;;;;5017581;28;20104;-69
2022/04/21 06:09:14;;;;;;;2.70;1.92;;;16.20;55.40;;;;;;5034754;28;20049;-69
2022/04/21 06:11:42;;;;;;;2.70;1.90;;;16.20;53.50;;;;;;5034727;28;20494;-70
2022/04/21 06:14:09;;;;;;;2.08;1.80;;;;;;;;;;5017457;28;20372;-70
2022/04/21 06:16:35;;;;;;;2.13;1.73;;;16.20;55.20;;;;;;5031334;28;20049;-69
2022/04/21 06:19:03;;;;;;;2.17;1.70;;;16.30;55.00;;;;;;5020298;28;20056;-69
2022/04/21 06:21:31;;;;;;;2.10;1.70;;;16.10;55.00;;;;;;5016372;28;20395;-69
2022/04/21 06:23:58;;;;;;;2.55;1.83;;;;;;;;;;5019906;28;20060;-69
2022/04/21 06:26:25;;;;;;;2.38;1.77;;;;;;;;;;5013439;28;20060;-70
2022/04/21 06:28:54;;;;;;;2.78;1.67;;;16.40;55.40;;;;;;5017149;28;20069;-69
2022/04/21 06:31:21;;;;;;;2.38;1.80;;;;;;;;;;5015963;28;20053;-70
2022/04/21 06:33:48;;;;;;;3.53;1.80;;;16.40;55.20;;;;;;5014775;28;20050;-69
2022/04/21 06:36:16;;;;;;;2.60;1.80;;;16.50;55.10;;;;;;5034224;28;20041;-69
2022/04/21 06:38:44;;;;;;;2.15;1.70;;;17.30;55.50;;;;;;5016800;28;20409;-70
2022/04/21 06:41:11;;;;;;;2.17;1.60;;;16.70;55.00;;;;;;5033821;28;20049;-69
2022/04/21 06:49:07;;;;;;;4.00;1.80;;;17.00;54.50;;;;;;5014972;28;20045;-69
2022/04/21 06:51:35;;;;;;;2.22;1.70;;;17.30;54.60;;;;;;5016063;28;20140;-69
2022/04/21 06:54:02;;;;;;;2.28;1.80;;;17.40;54.30;;;;;;5016305;28;20136;-69
2022/04/21 06:56:29;;;;;;;3.30;1.60;;;17.30;54.10;;;;;;5016086;28;20057;-69
2022/04/21 06:58:56;;;;;;;2.85;1.70;;;17.50;53.80;;;;;;5033868;28;20119;-69
2022/04/21 07:01:23;;;;;;;1.85;1.55;;;17.50;53.70;;;;;;5016188;28;20496;-69
2022/04/21 07:03:49;;;;;;;2.25;1.60;;;17.00;53.40;;;;;;5034113;28;20050;-69
2022/04/21 07:06:16;;;;;;;2.33;1.50;;;18.20;53.80;;;;;;5015681;28;20053;-69
2022/04/21 07:08:44;;;;;;;2.60;1.50;;;18.80;54.20;;;;;;5033967;28;20417;-69
2022/04/21 07:11:12;;;;;;;4.05;1.70;;;17.90;53.10;;;;;;5015586;28;20140;-69
2022/04/21 07:13:38;;;;;;;1.63;1.42;;;18.20;52.90;;;;;;5033502;28;20085;-70
2022/04/21 07:16:06;;;;;;;4.43;1.55;;;18.20;52.70;;;;;;5015853;28;20049;-69
2022/04/21 07:18:33;;;;;;;2.78;1.65;;;;;;;;;;5016034;28;20087;-69
2022/04/21 07:21:00;;;;;;;1.75;1.40;;;19.00;47.80;;;;;;5015477;28;20055;-70
2022/04/21 07:23:27;;;;;;;2.92;1.67;;;19.00;52.60;;;;;;5016037;28;20053;-69
2022/04/21 07:25:55;;;;;;;2.90;1.55;;;17.60;51.80;;;;;;5033320;28;20072;-69
2022/04/21 07:28:22;;;;;;;1.80;1.48;;;17.80;52.20;;;;;;5015825;28;20063;-69
2022/04/21 07:30:49;;;;;;;3.75;1.60;;;18.60;46.50;;;;;;5013380;28;20414;-69
2022/04/21 07:33:17;;;;;;;3.15;1.48;;;18.00;51.80;;;;;;5012076;28;20064;-69
2022/04/21 07:35:44;;;;;;;1.92;1.50;;;18.80;52.30;;;;;;5013633;28;20074;-69
2022/04/21 07:38:11;;;;;;;3.13;1.63;;;19.00;52.00;;;;;;5014736;28;20049;-69
2022/04/21 07:40:39;;;;;;;3.15;1.33;;;18.70;52.10;;;;;;5015607;28;20057;-70
2022/04/21 07:43:08;;;;;;;1.88;1.48;;;18.90;48.90;;;;;;5015469;28;20380;-69
2022/04/21 07:45:35;;;;;;;2.67;1.90;;;19.10;52.50;;;;;;5032134;28;20487;-68
2022/04/21 07:48:01;;;;;;;2.30;1.58;;;18.90;51.60;;;;;;5032583;28;20042;-70
2022/04/21 07:50:28;;;;;;;1.77;1.40;;;19.20;51.60;;;;;;5012999;28;20049;-69
2022/04/21 07:55:39;;;;;;;2.30;1.70;;;18.90;51.70;;;;;;5014061;28;20046;-69
2022/04/21 07:58:08;;;;;;;1.67;1.30;;;18.90;51.70;;;;;;5033072;28;20407;-69
2022/04/21 08:00:36;;;;;;;3.10;1.60;;;19.20;51.90;;;;;;5032420;28;20060;-68
2022/04/21 08:03:03;;;;;;;2.78;1.40;;;18.30;51.20;;;;;;5015440;28;20099;-67
2022/04/21 08:05:30;;;;;;;2.40;1.58;;;19.00;48.60;;;;;;5032761;28;20053;-69
2022/04/21 08:07:57;;;;;;;2.38;1.40;;;18.60;51.40;;;;;;5015206;28;20067;-68
2022/04/21 08:10:27;;;;;;;3.83;1.55;;;19.60;47.80;;;;;;5032544;28;20045;-69
2022/04/21 08:12:54;;;;;;;4.13;1.40;;;19.10;51.40;;;;;;5014469;28;20049;-67
2022/04/21 08:15:26;;;;;;;2.85;1.45;;;19.60;52.10;;;;;;5031934;28;20053;-67
2022/04/21 08:17:54;;;;;;;1.80;1.35;;;18.90;51.20;;;;;;5032312;28;20056;-68
2022/04/21 08:20:21;;;;;;;2.35;1.50;;;19.70;51.60;;;;;;5032236;28;20049;-67
2022/04/21 08:22:47;;;;;;;3.25;1.50;;;19.30;51.80;;;;;;5032370;28;20059;-67
2022/04/21 08:33:28;;;;;;;1.98;1.60;;;18.50;50.60;;;;;;5014069;28;20516;-68
2022/04/21 08:35:58;;;;;;;2.72;1.35;;;19.10;51.20;;;;;;5031590;28;20061;-69
2022/04/21 08:38:24;;;;;;;4.90;1.58;;;19.80;51.50;;;;;;5031819;28;20091;-69
2022/04/21 08:40:53;;;;;;;2.55;1.33;;;20.00;51.30;;;;;;5014136;28;20054;-69
2022/04/21 08:43:19;;;;;;;3.85;1.33;;;19.40;51.30;;;;;;5032118;28;20079;-67
2022/04/21 08:45:49;;;;;;;4.80;1.25;;;19.30;50.90;;;;;;5014111;28;20057;-67
2022/04/21 08:48:17;;;;;;;2.90;1.33;;;19.50;51.00;;;;;;5013865;28;20055;-67
2022/04/21 08:50:43;;;;;;;3.05;1.50;;;19.20;50.60;;;;;;5013716;28;20059;-67
2022/04/21 08:53:10;;;;;;;1.60;1.30;;;19.40;51.00;;;;;;5014471;28;20057;-67
2022/04/21 08:55:37;;;;;;;2.03;1.35;;;19.20;50.80;;;;;;5043250;28;20045;-67
2022/04/21 08:58:05;;;;;;;2.03;1.30;;;18.50;50.50;;;;;;5018790;28;20053;-66
2022/04/21 09:00:32;;;;;;;2.95;1.50;;;19.70;50.90;;;;;;5030882;28;20049;-66
2022/04/21 09:03:00;;;;;;;4.30;1.60;;;19.60;51.20;;;;;;5033518;28;20393;-67
2022/04/21 09:05:28;;;;;;;4.03;1.30;;;19.50;51.40;;;;;;5033518;28;20044;-68
2022/04/21 09:07:54;;;;;;;1.65;1.25;;;19.60;50.80;;;;;;5031302;28;20513;-67
2022/04/21 09:10:22;;;;;;;3.30;1.58;;;;;;;;;;5034752;28;20051;-68
2022/04/21 09:12:50;;;;;;;1.58;1.30;;;19.40;51.00;;;;;;5033764;28;20057;-67
2022/04/21 09:15:17;;;;;;;4.65;1.60;;;19.10;50.80;;;;;;5014526;28;20058;-67
2022/04/21 09:17:46;;;;;;;1.92;1.38;;;19.40;50.70;;;;;;5027288;28;20049;-67
2022/04/21 09:20:15;;;;;;;2.28;1.40;;;18.40;50.30;;;;;;5032833;28;20049;-67
2022/04/21 09:22:43;;;;;;;2.22;1.33;;;19.60;50.80;;;;;;5032218;28;20050;-67
2022/04/21 09:25:10;;;;;;;2.13;1.42;;;19.30;45.20;;;;;;5018678;28;20053;-68
2022/04/21 09:27:41;;;;;;;2.53;1.70;;;19.30;51.40;;;;;;5016793;28;20558;-66
2022/04/21 09:30:10;;;;;;;4.57;1.90;;;19.50;50.50;;;;;;5028854;28;20467;-66
2022/04/21 09:32:38;;;;;;;2.60;1.50;;;19.20;50.50;;;;;;5031712;28;20054;-67
2022/04/21 09:35:06;;;;;;;2.22;1.35;;;19.10;50.50;;;;;;5047758;28;20052;-67
2022/04/21 09:37:44;;;;;;;5.97;1.58;;;19.30;50.70;;;;;;5043387;28;20049;-67
2022/04/21 09:40:12;;;;;;;4.55;1.45;;;19.70;50.60;;;;;;5024099;28;20061;-67
2022/04/21 09:42:39;;;;;;;1.58;1.25;;;19.40;51.20;;;;;;5013945;28;20057;-67
2022/04/21 09:47:50;;;;;;;1.98;1.40;;;19.30;45.70;;;;;;5013780;28;20049;-68
2022/04/21 09:50:17;;;;;;;1.77;1.40;;;19.20;50.40;;;;;;5033216;28;20050;-67
2022/04/21 09:52:49;;;;;;;2.42;1.58;;;19.10;50.30;;;;;;4997720;28;20608;-67
2022/04/21 09:55:22;;;;;;;4.55;1.42;;;18.60;50.40;;;;;;5031381;28;20079;-67
2022/04/21 09:57:52;;;;;;;2.60;1.42;;;19.80;51.00;;;;;;5013782;28;20419;-67
2022/04/21 10:00:21;;;;;;;2.33;1.40;;;19.30;45.10;;;;;;5013595;28;20060;-68
2022/04/21 10:02:49;;;;;;;2.13;1.60;;;19.30;50.60;;;;;;5013885;28;20049;-67
2022/04/21 10:05:16;;;;;;;2.60;1.40;;;19.40;50.70;;;;;;5034219;28;20045;-67
2022/04/21 10:07:44;;;;;;;2.25;1.30;;;20.10;51.00;;;;;;5025064;28;20046;-67
2022/04/21 10:10:12;;;;;;;2.63;1.50;;;19.40;50.50;;;;;;5031394;28;20064;-69
2022/04/21 10:12:39;;;;;;;3.30;1.30;;;18.70;50.00;;;;;;5031199;28;20056;-68
2022/04/21 10:15:08;;;;;;;3.17;1.40;;;19.00;51.90;;;;;;5013823;28;20053;-67
2022/04/21 10:17:34;;;;;;;1.65;1.40;;;19.50;50.70;;;;;;5014765;28;20056;-68
2022/04/21 10:20:01;;;;;;;2.60;1.38;;;19.30;50.50;;;;;;5014917;28;20512;-68
2022/04/21 10:22:28;;;;;;;3.13;1.80;;;19.00;50.20;;;;;;5028921;28;20048;-67
2022/04/21 10:24:55;;;;;;;2.28;1.50;;;18.30;50.00;;;;;;5015289;28;20055;-67
2022/04/21 10:27:42;;;;;;;3.20;1.55;;;19.70;46.80;;;;;;5024914;28;20112;-68
2022/04/21 10:30:14;;;;;;;3.67;2.30;;;19.20;50.30;;;;;;5015292;28;20076;-67
2022/04/21 10:32:51;;;;;;;6.90;2.70;;;18.30;49.00;;;;;;5015185;28;20050;-67
2022/04/21 10:35:21;;;;;;;5.32;2.72;;;19.10;44.10;;;;;;5016643;28;20064;-67
2022/04/21 10:37:48;;;;;;;5.00;2.08;;;18.90;48.60;;;;;;5015554;28;20050;-65
2022/04/21 10:40:21;;;;;;;4.03;1.88;;;18.70;49.40;;;;;;5022300;28;20050;-65
2022/04/21 10:42:59;;;;;;;4.53;1.95;;;19.10;50.00;;;;;;5019643;28;20078;-67
2022/04/21 10:45:27;;;;;;;3.10;1.63;;;19.00;49.90;;;;;;5014166;28;20052;-67
2022/04/21 10:48:04;;;;;;;2.47;1.60;;;18.90;49.80;;;;;;5014338;28;20392;-68
2022/04/21 10:50:31;;;;;;;5.15;1.52;;;19.10;50.20;;;;;;5012915;28;20147;-68
2022/04/21 10:58:53;;;;;;;2.38;1.50;;;19.10;50.10;;;;;;5033959;28;20137;-67
2022/04/21 11:01:31;;;;;;;2.85;1.50;;;19.10;50.10;;;;;;5016204;28;20102;-67
2022/04/21 11:04:20;;;;;;;3.83;1.70;;;18.90;49.70;;;;;;5033749;28;20152;-67
2022/04/21 11:06:48;;;;;;;2.60;1.50;;;18.20;50.00;;;;;;5011257;28;20085;-68
2022/04/21 11:09:34;;;;;;;1.73;1.25;;;19.70;50.30;;;;;;5015235;28;20058;-67
2022/04/21 11:12:00;;;;;;;2.58;1.60;;;18.90;51.30;;;;;;5029830;28;20041;-68
2022/04/21 11:14:32;;;;;;;2.78;1.55;;;18.70;49.80;;;;;;5035177;28;20046;-70
2022/04/21 11:16:59;;;;;;;6.32;1.98;;;19.00;51.30;;;;;;5034767;28;20148;-69
2022/04/21 11:19:40;;;;;;;3.03;1.38;;;19.50;50.30;;;;;;5015686;28;20050;-69
2022/04/21 11:22:07;;;;;;;2.20;1.50;;;19.00;44.70;;;;;;5048331;28;20057;-69
2022/04/21 11:25:03;;;;;;;5.38;1.40;;;19.70;50.70;;;;;;5049041;28;20596;-70
2022/04/21 11:27:34;;;;;;;3.00;1.42;;;18.80;50.20;;;;;;5016133;28;20059;-71
2022/04/21 11:30:07;;;;;;;3.13;1.40;;;19.70;51.30;;;;;;5019825;28;20056;-68
2022/04/21 11:32:34;;;;;;;1.95;1.42;;;18.90;50.20;;;;;;5015674;28;20057;-69
2022/04/21 11:35:02;;;;;;;2.45;1.55;;;19.00;50.50;;;;;;5031579;28;20045;-68
2022/04/21 11:37:59;;;;;;;2.50;1.60;;;18.80;50.50;;;;;;5013342;28;20504;-69
2022/04/21 11:40:36;;;;;;;2.33;1.60;;;19.00;50.30;;;;;;4958271;28;20051;-69
2022/04/21 11:43:05;;;;;;;2.38;1.50;;;19.50;50.80;;;;;;5025439;28;20120;-67
2022/04/21 11:45:36;;;;;;;2.50;1.42;;;18.90;50.50;;;;;;5015654;28;20056;-69
2022/04/21 11:48:09;;;;;;;4.57;1.90;;;19.00;50.30;;;;;;5009333;28;20042;-69
2022/04/21 11:50:36;;;;;;;3.45;1.50;;;18.40;50.30;;;;;;5014952;28;20055;-70
2022/04/21 11:53:11;;;;;;;2.97;1.65;;;18.00;50.20;;;;;;5015667;28;20053;-69
2022/04/21 11:55:38;;;;;;;2.67;1.50;;;18.10;50.10;;;;;;5015332;28;20053;-69
2022/04/21 11:58:07;;;;;;;3.17;1.83;;;18.10;50.00;;;;;;5028944;28;20049;-71
2022/04/21 12:08:49;;;;;;;3.60;1.47;;;18.80;51.30;;;;;;5014858;28;20394;-69
2022/04/21 12:11:21;;;;;;;2.08;1.48;;;18.90;50.70;;;;;;5050979;28;20057;-68
2022/04/21 12:13:49;;;;;;;2.67;1.73;;;18.80;50.80;;;;;;5026850;28;20061;-69
2022/04/21 12:16:40;;;;;;;3.40;1.70;;;19.00;50.80;;;;;;5040210;28;20044;-69
2022/04/21 12:19:16;;;;;;;2.22;1.70;;;18.50;51.10;;;;;;5020594;28;20132;-69
2022/04/21 12:21:43;;;;;;;3.58;1.70;;;18.90;50.70;;;;;;5014631;28;20053;-69
2022/04/21 12:24:14;;;;;;;1.92;1.58;;;18.80;50.80;;;;;;5014741;28;20056;-69
2022/04/21 12:26:50;;;;;;;3.15;1.50;;;19.00;51.30;;;;;;5014889;28;20057;-69
2022/04/21 12:29:17;;;;;;;4.43;1.60;;;19.40;51.20;;;;;;5014920;28;20049;-70
2022/04/21 12:31:47;;;;;;;2.03;1.50;;;18.80;51.00;;;;;;5035247;28;20044;-69
2022/04/21 12:34:20;;;;;;;1.95;1.50;;;18.80;50.60;;;;;;5014499;28;20053;-68
2022/04/21 12:36:55;;;;;;;2.45;1.73;;;18.90;50.70;;;;;;5018197;28;20055;-69
2022/04/21 12:39:22;;;;;;;2.83;1.60;;;18.80;51.30;;;;;;5033662;28;20128;-69
2022/04/21 12:41:48;;;;;;;3.25;1.60;;;19.00;51.30;;;;;;5047432;28;20375;-68
2022/04/21 12:44:16;;;;;;;2.05;1.50;;;19.00;50.90;;;;;;5034042;28;20417;-69
2022/04/21 12:46:43;;;;;;;1.60;1.50;;;18.80;51.00;;;;;;5025570;28;20060;-69
2022/04/21 12:49:11;;;;;;;2.00;1.33;;;18.70;46.20;;;;;;5014779;28;20495;-69
2022/04/21 12:51:48;;;;;;;1.85;1.50;;;18.70;46.30;;;;;;5025333;28;20057;-68
2022/04/21 12:54:24;;;;;;;2.17;1.40;;;19.50;51.60;;;;;;5031958;28;20046;-68
2022/04/21 12:56:55;;;;;;;1.63;1.38;;;18.00;51.10;;;;;;5032145;28;20144;-69
2022/04/21 12:59:22;;;;;;;2.25;1.50;;;18.80;51.30;;;;;;5014332;28;20050;-69
2022/04/21 13:01:48;;;;;;;1.90;1.50;;;19.30;51.60;;;;;;5016507;28;20391;-69
2022/04/21 13:04:17;;;;;;;2.20;1.35;;;19.10;51.20;;;;;;5014059;28;20504;-69
2022/04/21 13:06:44;;;;;;;4.50;1.55;;;19.10;51.30;;;;;;5051523;28;20045;-69
2022/04/21 13:09:11;;;;;;;1.77;1.30;;;18.70;50.90;;;;;;5034083;28;20049;-69
2022/04/21 13:11:37;;;;;;;2.03;1.40;;;18.80;51.40;;;;;;5034432;28;20048;-69
2022/04/21 13:14:04;;;;;;;3.63;1.52;;;19.00;51.00;;;;;;5042495;28;20053;-69
2022/04/21 13:16:31;;;;;;;3.28;1.50;;;19.60;51.50;;;;;;5050634;28;20051;-69
2022/04/21 13:18:58;;;;;;;2.13;1.40;;;19.00;51.90;;;;;;5033110;28;20049;-69
2022/04/21 13:24:10;;;;;;;1.83;1.40;;;18.70;51.30;;;;;;5031738;28;20088;-70
2022/04/21 13:26:37;;;;;;;1.88;1.58;;;19.50;51.80;;;;;;5033131;28;20149;-70
2022/04/21 13:29:06;;;;;;;2.17;1.60;;;19.40;51.60;;;;;;5042635;28;20059;-70
2022/04/21 13:34:16;;;;;;;3.53;1.42;;;18.30;50.80;;;;;;5013816;28;20418;-70
2022/04/21 13:36:44;;;;;;;2.00;1.40;;;18.80;50.80;;;;;;5016993;28;20053;-70
2022/04/21 13:39:12;;;;;;;2.22;1.50;;;18.60;51.00;;;;;;5033324;28;20051;-70
2022/04/21 13:41:39;;;;;;;2.92;1.80;;;18.30;50.60;;;;;;5033304;28;20048;-70
2022/04/21 13:44:07;;;;;;;2.17;1.58;;;18.70;46.30;;;;;;5026679;28;20485;-69
2022/04/21 13:46:34;;;;;;;2.03;1.60;;;18.70;52.40;;;;;;5033377;28;20053;-70
2022/04/21 13:49:02;;;;;;;2.35;1.52;;;18.70;51.70;;;;;;5051051;28;20087;-70
2022/04/21 13:51:28;;;;;;;3.38;1.77;;;18.80;46.40;;;;;;5051052;28;20074;-70
2022/04/21 13:53:56;;;;;;;2.10;1.58;;;18.40;50.80;;;;;;5017255;28;20060;-70
2022/04/21 13:56:23;;;;;;;2.63;1.50;;;18.60;51.50;;;;;;5019684;28;20501;-70
2022/04/21 13:58:50;;;;;;;2.20;1.60;;;19.30;53.50;;;;;;5027132;28;20049;-70
2022/04/21 14:01:17;;;;;;;2.65;1.60;;;17.90;51.00;;;;;;5034996;28;20048;-70
2022/04/21 14:03:44;;;;;;;2.45;1.58;;;18.70;51.60;;;;;;5034927;28;20060;-70